sensor_id;sensor_type;location;lat;lon;timestamp;pressure;altitude;pressure_sealevel;temperature;humidity
25658;BME280;13517;59.320;18.042;2023-05-22T00:00:07;102078.72;;;11.00;86.00
25658;BME280;13517;59.320;18.042;2023-05-22T00:02:33;102077.13;;;10.96;86.19
25658;BME280;13517;59.320;18.042;2023-05-22T00:05:04;102091.00;;;11.07;86.32
25658;BME280;13517;59.320;18.042;2023-05-22T00:07:30;102092.13;;;11.03;86.46
25658;BME280;13517;59.320;18.042;2023-05-22T00:09:56;102077.16;;;10.94;86.92
25658;BME280;13517;59.320;18.042;2023-05-22T00:12:21;102095.69;;;11.03;86.94
25658;BME280;13517;59.320;18.042;2023-05-22T00:14:47;102081.78;;;10.92;88.00
25658;BME280;13517;59.320;18.042;2023-05-22T00:17:12;102090.41;;;11.00;88.55
25658;BME280;13517;59.320;18.042;2023-05-22T00:19:41;102075.63;;;10.88;88.11
25658;BME280;13517;59.320;18.042;2023-05-22T00:22:08;102086.88;;;10.98;88.38
25658;BME280;13517;59.320;18.042;2023-05-22T00:24:34;102076.56;;;10.87;87.36
25658;BME280;13517;59.320;18.042;2023-05-22T00:26:59;102094.34;;;10.93;86.96
25658;BME280;13517;59.320;18.042;2023-05-22T00:29:25;102053.81;;;10.72;86.76
25658;BME280;13517;59.320;18.042;2023-05-22T00:31:50;102084.22;;;10.78;87.01
25658;BME280;13517;59.320;18.042;2023-05-22T00:34:15;102055.97;;;10.64;86.90
25658;BME280;13517;59.320;18.042;2023-05-22T00:36:41;102066.78;;;10.64;87.00
25658;BME280;13517;59.320;18.042;2023-05-22T00:39:06;102081.84;;;10.70;87.18
25658;BME280;13517;59.320;18.042;2023-05-22T00:41:33;102078.53;;;10.63;86.86
25658;BME280;13517;59.320;18.042;2023-05-22T00:43:59;102088.00;;;10.73;87.23
25658;BME280;13517;59.320;18.042;2023-05-22T00:46:25;102072.28;;;10.61;86.74
25658;BME280;13517;59.320;18.042;2023-05-22T00:48:51;102085.22;;;10.75;86.34
25658;BME280;13517;59.320;18.042;2023-05-22T00:51:21;102100.44;;;10.78;85.90
25658;BME280;13517;59.320;18.042;2023-05-22T00:53:48;102100.44;;;10.78;86.10
25658;BME280;13517;59.320;18.042;2023-05-22T00:56:14;102097.66;;;10.79;85.79
25658;BME280;13517;59.320;18.042;2023-05-22T00:58:40;102100.28;;;10.81;85.33
25658;BME280;13517;59.320;18.042;2023-05-22T01:01:07;102078.25;;;10.69;85.63
25658;BME280;13517;59.320;18.042;2023-05-22T01:03:43;102090.94;;;10.67;85.87
25658;BME280;13517;59.320;18.042;2023-05-22T01:06:13;102090.16;;;10.65;85.96
25658;BME280;13517;59.320;18.042;2023-05-22T01:08:40;102087.28;;;10.68;86.21
25658;BME280;13517;59.320;18.042;2023-05-22T01:11:14;102060.88;;;10.54;86.27
25658;BME280;13517;59.320;18.042;2023-05-22T01:16:13;102080.34;;;10.62;86.19
25658;BME280;13517;59.320;18.042;2023-05-22T01:18:52;102075.16;;;10.58;86.00
25658;BME280;13517;59.320;18.042;2023-05-22T01:21:56;102078.81;;;10.57;87.50
25658;BME280;13517;59.320;18.042;2023-05-22T01:24:52;102071.06;;;10.47;87.88
25658;BME280;13517;59.320;18.042;2023-05-22T01:30:19;102081.75;;;10.51;87.38
25658;BME280;13517;59.320;18.042;2023-05-22T01:32:48;102057.88;;;10.40;87.35
25658;BME280;13517;59.320;18.042;2023-05-22T01:35:16;102053.28;;;10.42;87.79
25658;BME280;13517;59.320;18.042;2023-05-22T01:37:43;102086.06;;;10.55;87.49
25658;BME280;13517;59.320;18.042;2023-05-22T01:40:10;102056.91;;;10.42;87.34
25658;BME280;13517;59.320;18.042;2023-05-22T01:42:37;102080.75;;;10.53;87.83
25658;BME280;13517;59.320;18.042;2023-05-22T01:45:09;102065.03;;;10.41;87.82
25658;BME280;13517;59.320;18.042;2023-05-22T01:47:35;102080.75;;;10.53;87.69
25658;BME280;13517;59.320;18.042;2023-05-22T01:50:02;102082.81;;;10.46;88.18
25658;BME280;13517;59.320;18.042;2023-05-22T01:56:02;102037.44;;;10.12;89.76
25658;BME280;13517;59.320;18.042;2023-05-22T01:58:26;102078.72;;;10.36;90.82
25658;BME280;13517;59.320;18.042;2023-05-22T02:00:55;102063.84;;;10.26;91.74
25658;BME280;13517;59.320;18.042;2023-05-22T02:03:29;102076.22;;;10.31;91.56
25658;BME280;13517;59.320;18.042;2023-05-22T02:05:57;102085.09;;;10.35;91.42
25658;BME280;13517;59.320;18.042;2023-05-22T02:08:24;102087.50;;;10.41;92.19
25658;BME280;13517;59.320;18.042;2023-05-22T02:10:51;102054.75;;;10.28;91.57
25658;BME280;13517;59.320;18.042;2023-05-22T02:13:19;102085.66;;;10.43;92.40
25658;BME280;13517;59.320;18.042;2023-05-22T02:15:45;102051.84;;;10.33;92.20
25658;BME280;13517;59.320;18.042;2023-05-22T02:18:11;102077.16;;;10.53;92.49
25658;BME280;13517;59.320;18.042;2023-05-22T02:20:37;102079.72;;;10.56;92.34
25658;BME280;13517;59.320;18.042;2023-05-22T02:23:03;102048.81;;;10.41;91.98
25658;BME280;13517;59.320;18.042;2023-05-22T02:25:28;102082.16;;;10.62;92.13
25658;BME280;13517;59.320;18.042;2023-05-22T02:27:53;102013.63;;;10.21;92.06
25658;BME280;13517;59.320;18.042;2023-05-22T02:30:19;102086.75;;;10.60;93.84
25658;BME280;13517;59.320;18.042;2023-05-22T02:32:45;102075.06;;;10.59;95.20
25658;BME280;13517;59.320;18.042;2023-05-22T02:35:10;102068.09;;;10.54;96.38
25658;BME280;13517;59.320;18.042;2023-05-22T02:37:36;102078.53;;;10.63;96.71
25658;BME280;13517;59.320;18.042;2023-05-22T02:40:03;102045.47;;;10.56;96.44
25658;BME280;13517;59.320;18.042;2023-05-22T02:42:31;102021.16;;;10.56;95.69
25658;BME280;13517;59.320;18.042;2023-05-22T02:44:56;102065.25;;;10.98;95.13
25658;BME280;13517;59.320;18.042;2023-05-22T02:47:21;102068.09;;;11.16;94.97
25658;BME280;13517;59.320;18.042;2023-05-22T02:49:47;102031.91;;;11.19;93.89
25658;BME280;13517;59.320;18.042;2023-05-22T02:52:12;102027.91;;;11.47;92.86
25658;BME280;13517;59.320;18.042;2023-05-22T02:54:38;102070.03;;;11.91;91.71
25658;BME280;13517;59.320;18.042;2023-05-22T02:57:03;102056.97;;;11.99;91.10
25658;BME280;13517;59.320;18.042;2023-05-22T02:59:29;102052.56;;;12.16;90.15
25658;BME280;13517;59.320;18.042;2023-05-22T03:01:55;102039.38;;;12.27;90.16
25658;BME280;13517;59.320;18.042;2023-05-22T03:04:21;102035.28;;;12.36;89.75
25658;BME280;13517;59.320;18.042;2023-05-22T03:06:46;102025.31;;;12.19;90.68
25658;BME280;13517;59.320;18.042;2023-05-22T03:09:12;102027.09;;;12.20;91.54
25658;BME280;13517;59.320;18.042;2023-05-22T03:11:37;102049.09;;;12.49;90.52
25658;BME280;13517;59.320;18.042;2023-05-22T03:14:03;102035.25;;;12.55;89.83
25658;BME280;13517;59.320;18.042;2023-05-22T03:16:28;102068.53;;;12.75;90.59
25658;BME280;13517;59.320;18.042;2023-05-22T03:19:17;102060.97;;;12.82;90.95
25658;BME280;13517;59.320;18.042;2023-05-22T03:21:42;102064.69;;;12.97;89.68
25658;BME280;13517;59.320;18.042;2023-05-22T03:24:08;102041.97;;;12.82;90.88
25658;BME280;13517;59.320;18.042;2023-05-22T03:26:35;102068.47;;;12.76;93.32
25658;BME280;13517;59.320;18.042;2023-05-22T03:29:00;102036.81;;;12.42;94.71
25658;BME280;13517;59.320;18.042;2023-05-22T03:31:27;102061.03;;;12.45;95.56
25658;BME280;13517;59.320;18.042;2023-05-22T03:33:53;102041.13;;;12.28;96.75
25658;BME280;13517;59.320;18.042;2023-05-22T03:36:19;102046.53;;;12.28;97.40
25658;BME280;13517;59.320;18.042;2023-05-22T03:38:45;102058.16;;;12.30;98.35
25658;BME280;13517;59.320;18.042;2023-05-22T03:41:11;102071.66;;;12.32;99.36
25658;BME280;13517;59.320;18.042;2023-05-22T03:43:36;102064.53;;;12.29;99.47
25658;BME280;13517;59.320;18.042;2023-05-22T03:46:02;102066.28;;;12.30;99.50
25658;BME280;13517;59.320;18.042;2023-05-22T03:48:27;102030.00;;;12.15;100.00
25658;BME280;13517;59.320;18.042;2023-05-22T03:50:53;102055.47;;;12.30;100.00
25658;BME280;13517;59.320;18.042;2023-05-22T03:53:18;102033.22;;;12.23;100.00
25658;BME280;13517;59.320;18.042;2023-05-22T03:55:43;102058.34;;;12.45;100.00
25658;BME280;13517;59.320;18.042;2023-05-22T03:58:09;102050.84;;;12.50;100.00
25658;BME280;13517;59.320;18.042;2023-05-22T04:00:34;102019.38;;;12.30;100.00
25658;BME280;13517;59.320;18.042;2023-05-22T04:03:00;102052.28;;;12.57;100.00
25658;BME280;13517;59.320;18.042;2023-05-22T04:05:25;102058.66;;;12.56;99.89
25658;BME280;13517;59.320;18.042;2023-05-22T04:07:51;102052.94;;;12.62;99.69
25658;BME280;13517;59.320;18.042;2023-05-22T04:10:16;102032.53;;;12.55;98.42
25658;BME280;13517;59.320;18.042;2023-05-22T04:12:42;102049.41;;;12.60;98.36
25658;BME280;13517;59.320;18.042;2023-05-22T04:15:08;102060.41;;;12.75;97.78
25658;BME280;13517;59.320;18.042;2023-05-22T04:17:38;102044.94;;;12.77;96.74
25658;BME280;13517;59.320;18.042;2023-05-22T04:20:03;102035.91;;;12.76;97.18
25658;BME280;13517;59.320;18.042;2023-05-22T04:22:30;102048.84;;;12.89;97.37
25658;BME280;13517;59.320;18.042;2023-05-22T04:24:56;102029.06;;;12.87;96.65
25658;BME280;13517;59.320;18.042;2023-05-22T04:27:21;102054.66;;;12.99;96.86
25658;BME280;13517;59.320;18.042;2023-05-22T04:29:47;102028.38;;;12.99;95.67
25658;BME280;13517;59.320;18.042;2023-05-22T04:32:14;102009.72;;;12.93;95.47
25658;BME280;13517;59.320;18.042;2023-05-22T04:34:45;101994.84;;;12.84;94.95
25658;BME280;13517;59.320;18.042;2023-05-22T04:37:11;101995.44;;;12.89;94.76
25658;BME280;13517;59.320;18.042;2023-05-22T04:39:39;102028.75;;;13.09;95.57
25658;BME280;13517;59.320;18.042;2023-05-22T04:42:05;102036.41;;;13.18;94.92
25658;BME280;13517;59.320;18.042;2023-05-22T04:44:31;102036.03;;;13.25;94.46
25658;BME280;13517;59.320;18.042;2023-05-22T04:47:02;102015.56;;;13.19;94.05
25658;BME280;13517;59.320;18.042;2023-05-22T04:49:28;102031.88;;;13.35;94.26
25658;BME280;13517;59.320;18.042;2023-05-22T04:51:56;102029.94;;;13.37;94.29
25658;BME280;13517;59.320;18.042;2023-05-22T04:54:22;102031.53;;;13.41;92.96
25658;BME280;13517;59.320;18.042;2023-05-22T04:56:49;101989.91;;;13.25;92.28
25658;BME280;13517;59.320;18.042;2023-05-22T04:59:16;102007.19;;;13.40;91.90
25658;BME280;13517;59.320;18.042;2023-05-22T05:01:41;101990.91;;;13.40;90.90
25658;BME280;13517;59.320;18.042;2023-05-22T05:04:11;101997.44;;;13.35;91.18
25658;BME280;13517;59.320;18.042;2023-05-22T05:06:37;102028.25;;;13.52;90.69
25658;BME280;13517;59.320;18.042;2023-05-22T05:09:03;102014.41;;;13.57;89.68
25658;BME280;13517;59.320;18.042;2023-05-22T05:11:29;102002.78;;;13.55;89.43
25658;BME280;13517;59.320;18.042;2023-05-22T05:13:54;101993.22;;;13.47;88.51
25658;BME280;13517;59.320;18.042;2023-05-22T05:16:20;102008.16;;;13.71;88.22
25658;BME280;13517;59.320;18.042;2023-05-22T05:18:45;102004.75;;;13.67;88.29
25658;BME280;13517;59.320;18.042;2023-05-22T05:21:11;102003.63;;;13.71;88.21
25658;BME280;13517;59.320;18.042;2023-05-22T05:23:36;102019.09;;;13.85;87.84
25658;BME280;13517;59.320;18.042;2023-05-22T05:26:02;101984.81;;;13.68;87.71
25658;BME280;13517;59.320;18.042;2023-05-22T05:28:28;101989.69;;;13.78;87.03
25658;BME280;13517;59.320;18.042;2023-05-22T05:30:53;101980.94;;;13.72;87.15
25658;BME280;13517;59.320;18.042;2023-05-22T05:33:18;101997.22;;;13.88;88.11
25658;BME280;13517;59.320;18.042;2023-05-22T05:35:44;102001.66;;;14.06;87.55
25658;BME280;13517;59.320;18.042;2023-05-22T05:38:09;101968.28;;;14.03;87.29
25658;BME280;13517;59.320;18.042;2023-05-22T05:40:35;101993.28;;;14.25;86.70
25658;BME280;13517;59.320;18.042;2023-05-22T05:43:00;101983.66;;;14.19;86.55
25658;BME280;13517;59.320;18.042;2023-05-22T05:45:26;101981.91;;;14.18;86.07
25658;BME280;13517;59.320;18.042;2023-05-22T05:47:51;101965.41;;;14.21;85.45
25658;BME280;13517;59.320;18.042;2023-05-22T05:50:17;101959.22;;;14.34;86.14
25658;BME280;13517;59.320;18.042;2023-05-22T05:52:42;101978.28;;;14.48;85.89
25658;BME280;13517;59.320;18.042;2023-05-22T05:55:08;101948.34;;;14.34;84.99
25658;BME280;13517;59.320;18.042;2023-05-22T05:57:34;101997.44;;;14.61;84.63
25658;BME280;13517;59.320;18.042;2023-05-22T06:00:00;101995.22;;;14.68;83.27
25658;BME280;13517;59.320;18.042;2023-05-22T06:02:25;101980.81;;;14.66;82.76
25658;BME280;13517;59.320;18.042;2023-05-22T06:04:51;101962.75;;;14.65;82.06
25658;BME280;13517;59.320;18.042;2023-05-22T06:07:18;101975.25;;;14.83;82.17
25658;BME280;13517;59.320;18.042;2023-05-22T06:09:43;101950.91;;;14.66;82.94
25658;BME280;13517;59.320;18.042;2023-05-22T06:12:08;101952.47;;;14.70;83.28
25658;BME280;13517;59.320;18.042;2023-05-22T06:14:37;101947.66;;;14.75;84.10
25658;BME280;13517;59.320;18.042;2023-05-22T06:17:05;101962.63;;;14.82;82.97
25658;BME280;13517;59.320;18.042;2023-05-22T06:19:30;101961.03;;;14.93;82.48
25658;BME280;13517;59.320;18.042;2023-05-22T06:21:56;101975.03;;;15.01;81.77
25658;BME280;13517;59.320;18.042;2023-05-22T06:24:21;101971.16;;;15.05;80.50
25658;BME280;13517;59.320;18.042;2023-05-22T06:26:47;101968.91;;;15.12;79.60
25658;BME280;13517;59.320;18.042;2023-05-22T06:29:12;101974.84;;;15.19;78.82
25658;BME280;13517;59.320;18.042;2023-05-22T06:31:37;101969.41;;;15.19;77.71
25658;BME280;13517;59.320;18.042;2023-05-22T06:34:04;101938.41;;;15.07;77.03
25658;BME280;13517;59.320;18.042;2023-05-22T06:36:29;101976.56;;;15.34;75.38
25658;BME280;13517;59.320;18.042;2023-05-22T06:38:55;101942.75;;;15.24;74.23
25658;BME280;13517;59.320;18.042;2023-05-22T06:41:20;101971.84;;;15.51;73.72
25658;BME280;13517;59.320;18.042;2023-05-22T06:43:46;101981.25;;;15.60;72.52
25658;BME280;13517;59.320;18.042;2023-05-22T06:46:12;101982.91;;;15.62;72.14
25658;BME280;13517;59.320;18.042;2023-05-22T06:48:37;101974.44;;;15.67;71.51
25658;BME280;13517;59.320;18.042;2023-05-22T06:51:03;101966.06;;;15.70;71.47
25658;BME280;13517;59.320;18.042;2023-05-22T06:53:28;101968.06;;;15.81;70.44
25658;BME280;13517;59.320;18.042;2023-05-22T06:55:54;101959.91;;;15.81;69.63
25658;BME280;13517;59.320;18.042;2023-05-22T06:58:20;101976.66;;;16.02;68.71
25658;BME280;13517;59.320;18.042;2023-05-22T07:00:45;101948.06;;;15.95;67.97
25658;BME280;13517;59.320;18.042;2023-05-22T07:03:11;101965.59;;;16.18;67.94
25658;BME280;13517;59.320;18.042;2023-05-22T07:05:36;101959.06;;;16.21;66.31
25658;BME280;13517;59.320;18.042;2023-05-22T07:08:02;101922.50;;;16.11;65.24
25658;BME280;13517;59.320;18.042;2023-05-22T07:10:27;101971.41;;;16.53;64.66
25658;BME280;13517;59.320;18.042;2023-05-22T07:12:53;101970.75;;;16.62;63.84
25658;BME280;13517;59.320;18.042;2023-05-22T07:15:18;101934.97;;;16.54;63.29
25658;BME280;13517;59.320;18.042;2023-05-22T07:17:43;101941.06;;;16.70;62.27
25658;BME280;13517;59.320;18.042;2023-05-22T07:20:09;101949.91;;;16.87;61.59
25658;BME280;13517;59.320;18.042;2023-05-22T07:22:36;101956.88;;;17.04;60.87
25658;BME280;13517;59.320;18.042;2023-05-22T07:25:02;101941.38;;;17.05;60.18
25658;BME280;13517;59.320;18.042;2023-05-22T07:27:28;101925.00;;;17.05;59.87
25658;BME280;13517;59.320;18.042;2023-05-22T07:29:53;101928.69;;;17.17;59.49
25658;BME280;13517;59.320;18.042;2023-05-22T07:32:19;101934.69;;;17.22;59.18
25658;BME280;13517;59.320;18.042;2023-05-22T07:34:44;101925.41;;;17.24;58.00
25658;BME280;13517;59.320;18.042;2023-05-22T07:37:11;101957.66;;;17.43;57.83
25658;BME280;13517;59.320;18.042;2023-05-22T07:39:37;101942.63;;;17.38;56.94
25658;BME280;13517;59.320;18.042;2023-05-22T07:42:02;101939.84;;;17.51;56.56
25658;BME280;13517;59.320;18.042;2023-05-22T07:44:29;101943.50;;;17.63;56.31
25658;BME280;13517;59.320;18.042;2023-05-22T07:46:55;101947.03;;;17.76;55.36
25658;BME280;13517;59.320;18.042;2023-05-22T07:49:20;101935.34;;;17.74;54.72
25658;BME280;13517;59.320;18.042;2023-05-22T07:51:47;101944.47;;;17.86;54.18
25658;BME280;13517;59.320;18.042;2023-05-22T07:54:13;101922.34;;;17.78;54.21
25658;BME280;13517;59.320;18.042;2023-05-22T07:56:42;101919.97;;;17.84;53.43
25658;BME280;13517;59.320;18.042;2023-05-22T07:59:08;101948.09;;;18.11;52.94
25658;BME280;13517;59.320;18.042;2023-05-22T08:01:36;101910.84;;;17.97;52.30
25658;BME280;13517;59.320;18.042;2023-05-22T08:04:02;101914.09;;;18.02;52.18
25658;BME280;13517;59.320;18.042;2023-05-22T08:06:28;101937.81;;;18.26;51.58
25658;BME280;13517;59.320;18.042;2023-05-22T08:08:54;101933.44;;;18.23;51.76
25658;BME280;13517;59.320;18.042;2023-05-22T08:11:19;101925.59;;;18.19;51.37
25658;BME280;13517;59.320;18.042;2023-05-22T08:13:45;101912.03;;;18.17;51.27
25658;BME280;13517;59.320;18.042;2023-05-22T08:16:11;101925.91;;;18.38;50.89
25658;BME280;13517;59.320;18.042;2023-05-22T08:18:36;101896.53;;;18.29;50.48
25658;BME280;13517;59.320;18.042;2023-05-22T08:21:02;101901.88;;;18.31;50.28
25658;BME280;13517;59.320;18.042;2023-05-22T08:23:27;101915.22;;;18.47;50.32
25658;BME280;13517;59.320;18.042;2023-05-22T08:25:54;101896.31;;;18.44;50.50
25658;BME280;13517;59.320;18.042;2023-05-22T08:28:19;101918.97;;;18.57;50.25
25658;BME280;13517;59.320;18.042;2023-05-22T08:30:45;101936.75;;;18.74;49.88
25658;BME280;13517;59.320;18.042;2023-05-22T08:33:10;101912.59;;;18.57;49.44
25658;BME280;13517;59.320;18.042;2023-05-22T08:35:36;101941.25;;;18.75;49.38
25658;BME280;13517;59.320;18.042;2023-05-22T08:38:01;101901.03;;;18.53;49.66
25658;BME280;13517;59.320;18.042;2023-05-22T08:40:36;101938.13;;;18.80;49.04
25658;BME280;13517;59.320;18.042;2023-05-22T08:43:03;101934.00;;;18.86;49.24
25658;BME280;13517;59.320;18.042;2023-05-22T08:45:29;101932.91;;;18.88;49.04
25658;BME280;13517;59.320;18.042;2023-05-22T08:47:58;101924.31;;;18.93;48.75
25658;BME280;13517;59.320;18.042;2023-05-22T08:50:26;101872.19;;;18.60;48.97
25658;BME280;13517;59.320;18.042;2023-05-22T08:52:54;101913.50;;;18.80;49.55
25658;BME280;13517;59.320;18.042;2023-05-22T08:55:21;101865.47;;;18.64;49.35
25658;BME280;13517;59.320;18.042;2023-05-22T08:57:48;101893.06;;;18.84;49.40
25658;BME280;13517;59.320;18.042;2023-05-22T09:00:15;101896.31;;;18.89;48.52
25658;BME280;13517;59.320;18.042;2023-05-22T09:02:41;101899.44;;;18.85;48.46
25658;BME280;13517;59.320;18.042;2023-05-22T09:05:07;101907.16;;;19.02;48.25
25658;BME280;13517;59.320;18.042;2023-05-22T09:07:33;101913.50;;;19.03;48.13
25658;BME280;13517;59.320;18.042;2023-05-22T09:09:59;101890.94;;;18.99;47.91
25658;BME280;13517;59.320;18.042;2023-05-22T09:12:25;101902.28;;;19.06;47.75
25658;BME280;13517;59.320;18.042;2023-05-22T09:14:51;101878.63;;;18.94;47.65
25658;BME280;13517;59.320;18.042;2023-05-22T09:17:19;101865.56;;;18.86;47.86
25658;BME280;13517;59.320;18.042;2023-05-22T09:19:45;101895.69;;;19.09;47.65
25658;BME280;13517;59.320;18.042;2023-05-22T09:22:12;101885.63;;;19.09;47.56
25658;BME280;13517;59.320;18.042;2023-05-22T09:24:39;101898.31;;;19.10;47.27
25658;BME280;13517;59.320;18.042;2023-05-22T09:27:06;101858.72;;;18.91;47.45
25658;BME280;13517;59.320;18.042;2023-05-22T09:29:46;101874.91;;;19.06;46.64
25658;BME280;13517;59.320;18.042;2023-05-22T09:32:13;101881.88;;;19.10;46.68
25658;BME280;13517;59.320;18.042;2023-05-22T09:34:39;101867.69;;;19.05;46.31
25658;BME280;13517;59.320;18.042;2023-05-22T09:37:04;101867.19;;;19.11;45.98
25658;BME280;13517;59.320;18.042;2023-05-22T09:39:42;101839.44;;;18.93;nan
25658;BME280;13517;59.320;18.042;2023-05-22T09:42:08;101832.22;;;18.92;45.53
25658;BME280;13517;59.320;18.042;2023-05-22T09:44:36;101849.75;;;19.01;45.29
25658;BME280;13517;59.320;18.042;2023-05-22T09:47:02;101850.88;;;18.98;45.99
25658;BME280;13517;59.320;18.042;2023-05-22T09:49:27;101864.31;;;19.13;45.93
25658;BME280;13517;59.320;18.042;2023-05-22T09:51:53;101860.97;;;19.09;45.64
25658;BME280;13517;59.320;18.042;2023-05-22T09:54:21;101850.75;;;19.00;45.67
25658;BME280;13517;59.320;18.042;2023-05-22T09:56:52;101863.72;;;19.09;45.85
25658;BME280;13517;59.320;18.042;2023-05-22T09:59:21;101846.00;;;19.13;46.12
25658;BME280;13517;59.320;18.042;2023-05-22T10:01:52;101810.03;;;18.95;45.35
25658;BME280;13517;59.320;18.042;2023-05-22T10:04:20;101831.06;;;19.06;45.20
25658;BME280;13517;59.320;18.042;2023-05-22T10:06:50;101830.44;;;19.14;44.75
25658;BME280;13517;59.320;18.042;2023-05-22T10:09:17;101842.75;;;19.19;44.62
25658;BME280;13517;59.320;18.042;2023-05-22T10:11:46;101842.13;;;19.16;44.76
25658;BME280;13517;59.320;18.042;2023-05-22T10:14:13;101814.66;;;19.06;44.84
25658;BME280;13517;59.320;18.042;2023-05-22T10:16:39;101805.31;;;19.09;45.02
25658;BME280;13517;59.320;18.042;2023-05-22T10:19:06;101827.53;;;19.27;44.15
25658;BME280;13517;59.320;18.042;2023-05-22T10:21:34;101837.03;;;19.23;44.19
25658;BME280;13517;59.320;18.042;2023-05-22T10:24:01;101824.47;;;19.20;43.98
25658;BME280;13517;59.320;18.042;2023-05-22T10:26:28;101793.25;;;19.00;43.98
25658;BME280;13517;59.320;18.042;2023-05-22T10:29:15;101816.16;;;19.10;43.87
25658;BME280;13517;59.320;18.042;2023-05-22T10:31:46;101801.72;;;19.08;44.16
25658;BME280;13517;59.320;18.042;2023-05-22T10:34:52;101784.03;;;19.01;43.94
25658;BME280;13517;59.320;18.042;2023-05-22T10:37:35;101816.88;;;19.12;43.91
25658;BME280;13517;59.320;18.042;2023-05-22T10:40:08;101794.34;;;19.09;44.13
25658;BME280;13517;59.320;18.042;2023-05-22T10:42:36;101802.16;;;19.25;44.60
25658;BME280;13517;59.320;18.042;2023-05-22T10:45:02;101798.78;;;19.32;44.08
25658;BME280;13517;59.320;18.042;2023-05-22T10:47:28;101753.53;;;19.05;43.56
25658;BME280;13517;59.320;18.042;2023-05-22T10:50:06;101787.72;;;19.23;43.99
25658;BME280;13517;59.320;18.042;2023-05-22T10:52:32;101784.59;;;19.27;44.47
25658;BME280;13517;59.320;18.042;2023-05-22T10:54:59;101765.03;;;19.21;44.43
25658;BME280;13517;59.320;18.042;2023-05-22T10:57:26;101783.34;;;19.31;44.22
25658;BME280;13517;59.320;18.042;2023-05-22T11:00:07;101781.34;;;19.22;44.53
25658;BME280;13517;59.320;18.042;2023-05-22T11:02:43;101767.53;;;19.24;44.43
25658;BME280;13517;59.320;18.042;2023-05-22T11:07:45;101764.19;;;19.41;44.71
25658;BME280;13517;59.320;18.042;2023-05-22T11:10:10;101713.00;;;19.21;44.53
25658;BME280;13517;59.320;18.042;2023-05-22T11:12:35;101758.56;;;19.54;44.56
25658;BME280;13517;59.320;18.042;2023-05-22T11:17:32;101720.66;;;19.38;45.11
25658;BME280;13517;59.320;18.042;2023-05-22T11:22:42;101716.84;;;19.51;45.26
25658;BME280;13517;59.320;18.042;2023-05-22T11:25:15;101739.28;;;19.66;44.26
25658;BME280;13517;59.320;18.042;2023-05-22T11:27:41;101734.19;;;19.61;44.61
25658;BME280;13517;59.320;18.042;2023-05-22T11:30:08;101730.06;;;19.67;44.68
25658;BME280;13517;59.320;18.042;2023-05-22T11:32:35;101671.81;;;19.43;44.25
25658;BME280;13517;59.320;18.042;2023-05-22T11:35:01;101739.69;;;19.82;43.86
25658;BME280;13517;59.320;18.042;2023-05-22T11:37:32;101731.59;;;19.81;44.05
25658;BME280;13517;59.320;18.042;2023-05-22T11:40:01;101713.34;;;19.70;44.36
25658;BME280;13517;59.320;18.042;2023-05-22T11:42:28;101705.00;;;19.71;44.34
25658;BME280;13517;59.320;18.042;2023-05-22T11:44:55;101661.03;;;19.52;43.99
25658;BME280;13517;59.320;18.042;2023-05-22T11:47:21;101718.66;;;19.93;44.02
25658;BME280;13517;59.320;18.042;2023-05-22T11:49:46;101727.97;;;20.02;44.06
25658;BME280;13517;59.320;18.042;2023-05-22T11:52:12;101703.53;;;19.98;43.99
25658;BME280;13517;59.320;18.042;2023-05-22T11:54:37;101718.91;;;20.11;43.61
25658;BME280;13517;59.320;18.042;2023-05-22T11:57:07;101705.44;;;19.98;43.58
25658;BME280;13517;59.320;18.042;2023-05-22T11:59:32;101686.16;;;19.88;43.63
25658;BME280;13517;59.320;18.042;2023-05-22T12:01:58;101709.50;;;20.04;43.76
25658;BME280;13517;59.320;18.042;2023-05-22T12:04:24;101686.63;;;19.93;43.40
25658;BME280;13517;59.320;18.042;2023-05-22T12:06:50;101703.75;;;20.07;43.21
25658;BME280;13517;59.320;18.042;2023-05-22T12:09:15;101673.38;;;19.98;42.84
25658;BME280;13517;59.320;18.042;2023-05-22T12:11:46;101693.78;;;20.16;42.53
25658;BME280;13517;59.320;18.042;2023-05-22T12:14:12;101689.31;;;20.14;42.97
25658;BME280;13517;59.320;18.042;2023-05-22T12:16:38;101673.97;;;20.02;43.27
25658;BME280;13517;59.320;18.042;2023-05-22T12:19:07;101550.22;;;19.44;43.60
25658;BME280;13517;59.320;18.042;2023-05-22T12:21:36;101648.34;;;20.13;43.04
25658;BME280;13517;59.320;18.042;2023-05-22T12:24:04;101692.28;;;20.42;42.29
25658;BME280;13517;59.320;18.042;2023-05-22T12:26:30;101678.09;;;20.37;42.55
25658;BME280;13517;59.320;18.042;2023-05-22T12:28:59;101641.66;;;20.16;42.42
25658;BME280;13517;59.320;18.042;2023-05-22T12:31:25;101678.09;;;20.37;42.16
25658;BME280;13517;59.320;18.042;2023-05-22T12:33:54;101662.81;;;20.35;42.29
25658;BME280;13517;59.320;18.042;2023-05-22T12:36:20;101664.25;;;20.39;41.98
25658;BME280;13517;59.320;18.042;2023-05-22T12:38:45;101643.44;;;20.26;42.34
25658;BME280;13517;59.320;18.042;2023-05-22T12:41:11;101630.59;;;20.27;41.89
25658;BME280;13517;59.320;18.042;2023-05-22T12:43:36;101616.84;;;20.17;41.79
25658;BME280;13517;59.320;18.042;2023-05-22T12:46:02;101617.16;;;20.24;41.33
25658;BME280;13517;59.320;18.042;2023-05-22T12:48:27;101598.78;;;20.14;41.66
25658;BME280;13517;59.320;18.042;2023-05-22T12:50:53;101649.53;;;20.50;41.15
25658;BME280;13517;59.320;18.042;2023-05-22T12:53:18;101532.44;;;19.80;41.00
25658;BME280;13517;59.320;18.042;2023-05-22T12:55:44;101627.56;;;20.40;40.91